sensor_id;sensor_type;location;lat;lon;timestamp;P1;durP1;ratioP1;P2;durP2;ratioP2
12721;SDS011;6425;50.316;8.114;2023-08-30T00:00:00;6.4;;;5.8;;
12721;SDS011;6425;50.316;8.114;2023-08-30T00:03:00;7.1;;;5.7;;
12721;SDS011;6425;50.316;8.114;2023-08-30T00:06:02;7.1;;;5.7;;
12721;SDS011;6425;50.316;8.114;2023-08-30T00:09:00;6;;;5.4;;
12721;SDS011;6425;50.316;8.114;2023-08-30T00:12:00;6.6;;;6.1;;
12721;SDS011;6425;50.316;8.114;2023-08-30T00:15:00;6.6;;;6.1;;
12721;SDS011;6425;50.316;8.114;2023-08-30T00:18:00;6.2;;;5.6;;
12721;SDS011;6425;50.316;8.114;2023-08-30T00:21:00;7;;;6.2;;
12721;SDS011;6425;50.316;8.114;2023-08-30T00:24:00;7.3;;;6.4;;
12721;SDS011;6425;50.316;8.114;2023-08-30T00:27:00;7.7;;;7;;
12721;SDS011;6425;50.316;8.114;2023-08-30T00:30:00;7.7;;;7;;
12721;SDS011;6425;50.316;8.114;2023-08-30T00:33:00;7.7;;;6.9;;
12721;SDS011;6425;50.316;8.114;2023-08-30T00:36:05;10.5;;;8.1;;
12721;SDS011;6425;50.316;8.114;2023-08-30T00:39:00;10.5;;;8.1;;
12721;SDS011;6425;50.316;8.114;2023-08-30T00:42:00;9.8;;;8.9;;
12721;SDS011;6425;50.316;8.114;2023-08-30T00:45:00;9.8;;;8.9;;
12721;SDS011;6425;50.316;8.114;2023-08-30T00:48:00;8;;;7.3;;
12721;SDS011;6425;50.316;8.114;2023-08-30T00:51:00;7.3;;;6.7;;
12721;SDS011;6425;50.316;8.114;2023-08-30T00:54:00;7.3;;;6.7;;
12721;SDS011;6425;50.316;8.114;2023-08-30T00:57:00;7.5;;;6.4;;
12721;SDS011;6425;50.316;8.114;2023-08-30T01:00:00;7.5;;;6.4;;
12721;SDS011;6425;50.316;8.114;2023-08-30T01:03:00;7.4;;;6.8;;
12721;SDS011;6425;50.316;8.114;2023-08-30T01:06:00;8.2;;;6.7;;
12721;SDS011;6425;50.316;8.114;2023-08-30T01:09:00;8.2;;;6.7;;
12721;SDS011;6425;50.316;8.114;2023-08-30T01:12:00;7;;;6.3;;
12721;SDS011;6425;50.316;8.114;2023-08-30T01:15:00;7;;;6.3;;
12721;SDS011;6425;50.316;8.114;2023-08-30T01:18:00;7.3;;;6.1;;
12721;SDS011;6425;50.316;8.114;2023-08-30T01:21:00;7.4;;;6.8;;
12721;SDS011;6425;50.316;8.114;2023-08-30T01:24:00;7.4;;;6.8;;
12721;SDS011;6425;50.316;8.114;2023-08-30T01:27:05;7.5;;;6.8;;
12721;SDS011;6425;50.316;8.114;2023-08-30T01:30:00;7.5;;;6.8;;
12721;SDS011;6425;50.316;8.114;2023-08-30T01:33:00;7.1;;;6.5;;
12721;SDS011;6425;50.316;8.114;2023-08-30T01:36:00;7;;;6.3;;
12721;SDS011;6425;50.316;8.114;2023-08-30T01:39:00;7;;;6.3;;
12721;SDS011;6425;50.316;8.114;2023-08-30T01:42:00;7.3;;;6.7;;
12721;SDS011;6425;50.316;8.114;2023-08-30T01:45:00;7.3;;;6.7;;
12721;SDS011;6425;50.316;8.114;2023-08-30T01:48:00;8.5;;;7.2;;
12721;SDS011;6425;50.316;8.114;2023-08-30T01:51:00;8.1;;;7;;
12721;SDS011;6425;50.316;8.114;2023-08-30T01:54:00;8.1;;;7;;
12721;SDS011;6425;50.316;8.114;2023-08-30T01:57:00;8;;;7.2;;
12721;SDS011;6425;50.316;8.114;2023-08-30T02:00:00;8;;;7.2;;
12721;SDS011;6425;50.316;8.114;2023-08-30T02:03:06;8.3;;;6.9;;
12721;SDS011;6425;50.316;8.114;2023-08-30T02:06:02;7.2;;;6.6;;
12721;SDS011;6425;50.316;8.114;2023-08-30T02:09:01;7.2;;;6.6;;
12721;SDS011;6425;50.316;8.114;2023-08-30T02:12:00;7.2;;;6.5;;
12721;SDS011;6425;50.316;8.114;2023-08-30T02:15:00;7.2;;;6.5;;
12721;SDS011;6425;50.316;8.114;2023-08-30T02:18:00;7.1;;;6.4;;
12721;SDS011;6425;50.316;8.114;2023-08-30T02:21:00;7.2;;;6.6;;
12721;SDS011;6425;50.316;8.114;2023-08-30T02:24:00;7.2;;;6.6;;
12721;SDS011;6425;50.316;8.114;2023-08-30T02:27:00;7.7;;;6.8;;
12721;SDS011;6425;50.316;8.114;2023-08-30T02:30:00;7.7;;;6.8;;
12721;SDS011;6425;50.316;8.114;2023-08-30T02:33:00;7.7;;;6.4;;
12721;SDS011;6425;50.316;8.114;2023-08-30T02:36:00;8.7;;;7.8;;
12721;SDS011;6425;50.316;8.114;2023-08-30T02:39:00;8.7;;;7.8;;
12721;SDS011;6425;50.316;8.114;2023-08-30T02:42:00;8.4;;;7.5;;
12721;SDS011;6425;50.316;8.114;2023-08-30T02:45:00;8.4;;;7.5;;
12721;SDS011;6425;50.316;8.114;2023-08-30T02:48:00;10.9;;;8.7;;
12721;SDS011;6425;50.316;8.114;2023-08-30T02:51:00;9.8;;;7.7;;
12721;SDS011;6425;50.316;8.114;2023-08-30T02:54:00;9.8;;;7.7;;
12721;SDS011;6425;50.316;8.114;2023-08-30T02:57:00;10;;;8.3;;
12721;SDS011;6425;50.316;8.114;2023-08-30T03:00:00;10;;;8.3;;
12721;SDS011;6425;50.316;8.114;2023-08-30T03:03:00;10.2;;;8.3;;
12721;SDS011;6425;50.316;8.114;2023-08-30T03:06:00;8.6;;;7.8;;
12721;SDS011;6425;50.316;8.114;2023-08-30T03:09:00;8.6;;;7.8;;
12721;SDS011;6425;50.316;8.114;2023-08-30T03:12:00;8.9;;;8.1;;
12721;SDS011;6425;50.316;8.114;2023-08-30T03:15:00;8.9;;;8.1;;
12721;SDS011;6425;50.316;8.114;2023-08-30T03:18:00;9.3;;;8.2;;
12721;SDS011;6425;50.316;8.114;2023-08-30T03:21:00;8.3;;;7.5;;
12721;SDS011;6425;50.316;8.114;2023-08-30T03:24:00;8.3;;;7.5;;
12721;SDS011;6425;50.316;8.114;2023-08-30T03:27:00;8;;;7.2;;
12721;SDS011;6425;50.316;8.114;2023-08-30T03:30:00;8;;;7.2;;
12721;SDS011;6425;50.316;8.114;2023-08-30T03:33:00;8.3;;;7.5;;
12721;SDS011;6425;50.316;8.114;2023-08-30T03:36:00;8.2;;;7.4;;
12721;SDS011;6425;50.316;8.114;2023-08-30T03:39:00;8.2;;;7.4;;
12721;SDS011;6425;50.316;8.114;2023-08-30T03:42:00;8.5;;;7.8;;
12721;SDS011;6425;50.316;8.114;2023-08-30T03:45:00;8.5;;;7.8;;
12721;SDS011;6425;50.316;8.114;2023-08-30T03:48:00;8.8;;;7.9;;
12721;SDS011;6425;50.316;8.114;2023-08-30T03:51:00;8.6;;;7.8;;
12721;SDS011;6425;50.316;8.114;2023-08-30T03:54:00;8.6;;;7.8;;
12721;SDS011;6425;50.316;8.114;2023-08-30T03:57:00;9.7;;;8.7;;
12721;SDS011;6425;50.316;8.114;2023-08-30T04:00:00;9.7;;;8.7;;
12721;SDS011;6425;50.316;8.114;2023-08-30T04:03:00;10.1;;;8.5;;
12721;SDS011;6425;50.316;8.114;2023-08-30T04:06:00;10.8;;;9.6;;
12721;SDS011;6425;50.316;8.114;2023-08-30T04:09:00;10.8;;;9.6;;
12721;SDS011;6425;50.316;8.114;2023-08-30T04:12:00;9.2;;;8.3;;
12721;SDS011;6425;50.316;8.114;2023-08-30T04:15:00;9.2;;;8.3;;
12721;SDS011;6425;50.316;8.114;2023-08-30T04:18:00;12.1;;;10.7;;
12721;SDS011;6425;50.316;8.114;2023-08-30T04:21:00;15.5;;;12.2;;
12721;SDS011;6425;50.316;8.114;2023-08-30T04:24:00;15.5;;;12.2;;
12721;SDS011;6425;50.316;8.114;2023-08-30T04:27:00;13.8;;;11.3;;
12721;SDS011;6425;50.316;8.114;2023-08-30T04:30:00;11.1;;;9.6;;
12721;SDS011;6425;50.316;8.114;2023-08-30T04:33:00;10.2;;;9.1;;
12721;SDS011;6425;50.316;8.114;2023-08-30T04:36:00;10.6;;;9.3;;
12721;SDS011;6425;50.316;8.114;2023-08-30T04:39:00;10.6;;;9.3;;
12721;SDS011;6425;50.316;8.114;2023-08-30T04:42:00;10.8;;;9.6;;
12721;SDS011;6425;50.316;8.114;2023-08-30T04:45:00;10.9;;;9.8;;
12721;SDS011;6425;50.316;8.114;2023-08-30T04:48:00;10.9;;;9.8;;
12721;SDS011;6425;50.316;8.114;2023-08-30T04:51:00;10.9;;;8.9;;
12721;SDS011;6425;50.316;8.114;2023-08-30T04:54:00;10.9;;;8.9;;
12721;SDS011;6425;50.316;8.114;2023-08-30T04:57:00;11;;;9.8;;
12721;SDS011;6425;50.316;8.114;2023-08-30T05:00:00;11.3;;;9.6;;
12721;SDS011;6425;50.316;8.114;2023-08-30T05:03:00;11.3;;;9.6;;
12721;SDS011;6425;50.316;8.114;2023-08-30T05:06:00;14;;;10.3;;
12721;SDS011;6425;50.316;8.114;2023-08-30T05:09:00;14;;;10.3;;
12721;SDS011;6425;50.316;8.114;2023-08-30T05:12:00;19.9;;;10.9;;
12721;SDS011;6425;50.316;8.114;2023-08-30T05:15:00;16.8;;;11.6;;
12721;SDS011;6425;50.316;8.114;2023-08-30T05:18:00;16.8;;;11.6;;
12721;SDS011;6425;50.316;8.114;2023-08-30T05:21:00;20.1;;;11.8;;
12721;SDS011;6425;50.316;8.114;2023-08-30T05:24:00;20.1;;;11.8;;
12721;SDS011;6425;50.316;8.114;2023-08-30T05:27:00;18;;;12;;
12721;SDS011;6425;50.316;8.114;2023-08-30T05:30:00;15.3;;;11.2;;
12721;SDS011;6425;50.316;8.114;2023-08-30T05:33:00;15.3;;;11.2;;
12721;SDS011;6425;50.316;8.114;2023-08-30T05:36:00;13.4;;;11.9;;
12721;SDS011;6425;50.316;8.114;2023-08-30T05:39:00;13.4;;;11.9;;
12721;SDS011;6425;50.316;8.114;2023-08-30T05:42:00;14.3;;;12.1;;
12721;SDS011;6425;50.316;8.114;2023-08-30T05:45:00;16;;;13.1;;
12721;SDS011;6425;50.316;8.114;2023-08-30T05:48:00;16;;;13.1;;
12721;SDS011;6425;50.316;8.114;2023-08-30T05:51:00;14.6;;;13;;
12721;SDS011;6425;50.316;8.114;2023-08-30T05:54:00;14.6;;;13;;
12721;SDS011;6425;50.316;8.114;2023-08-30T05:57:00;16.3;;;12.6;;
12721;SDS011;6425;50.316;8.114;2023-08-30T06:00:00;16.7;;;12.3;;
12721;SDS011;6425;50.316;8.114;2023-08-30T06:03:00;16.7;;;12.3;;
12721;SDS011;6425;50.316;8.114;2023-08-30T06:06:00;22.9;;;10.6;;
12721;SDS011;6425;50.316;8.114;2023-08-30T06:09:00;22.9;;;10.6;;
12721;SDS011;6425;50.316;8.114;2023-08-30T06:12:00;22.3;;;10.8;;
12721;SDS011;6425;50.316;8.114;2023-08-30T06:15:00;13.2;;;10.8;;
12721;SDS011;6425;50.316;8.114;2023-08-30T06:18:00;13.2;;;10.8;;
12721;SDS011;6425;50.316;8.114;2023-08-30T06:21:00;14.1;;;11.2;;
12721;SDS011;6425;50.316;8.114;2023-08-30T06:24:00;14.1;;;11.2;;
12721;SDS011;6425;50.316;8.114;2023-08-30T06:27:00;11.9;;;10.7;;
12721;SDS011;6425;50.316;8.114;2023-08-30T06:30:00;10.7;;;9.6;;
12721;SDS011;6425;50.316;8.114;2023-08-30T06:33:00;10.7;;;9.6;;
12721;SDS011;6425;50.316;8.114;2023-08-30T06:36:00;10.4;;;9.3;;
12721;SDS011;6425;50.316;8.114;2023-08-30T06:39:00;10.4;;;9.3;;
12721;SDS011;6425;50.316;8.114;2023-08-30T06:42:00;10.5;;;9.4;;
12721;SDS011;6425;50.316;8.114;2023-08-30T06:45:00;11.3;;;10.1;;
12721;SDS011;6425;50.316;8.114;2023-08-30T06:48:00;11.3;;;10.1;;
12721;SDS011;6425;50.316;8.114;2023-08-30T06:51:00;16.8;;;10.9;;
12721;SDS011;6425;50.316;8.114;2023-08-30T06:54:00;16.8;;;10.9;;
12721;SDS011;6425;50.316;8.114;2023-08-30T06:57:00;21.7;;;12.4;;
12721;SDS011;6425;50.316;8.114;2023-08-30T07:00:00;24.1;;;12.3;;
12721;SDS011;6425;50.316;8.114;2023-08-30T07:03:00;24.1;;;12.3;;
12721;SDS011;6425;50.316;8.114;2023-08-30T07:06:00;14.2;;;12.2;;
12721;SDS011;6425;50.316;8.114;2023-08-30T07:09:00;14.2;;;12.2;;
12721;SDS011;6425;50.316;8.114;2023-08-30T07:12:00;15.5;;;12.6;;
12721;SDS011;6425;50.316;8.114;2023-08-30T07:15:00;13.1;;;11.3;;
12721;SDS011;6425;50.316;8.114;2023-08-30T07:18:00;13.1;;;11.3;;
12721;SDS011;6425;50.316;8.114;2023-08-30T07:21:00;11.4;;;10.3;;
12721;SDS011;6425;50.316;8.114;2023-08-30T07:24:00;11.4;;;10.3;;
12721;SDS011;6425;50.316;8.114;2023-08-30T07:27:00;10.2;;;9.2;;
12721;SDS011;6425;50.316;8.114;2023-08-30T07:30:00;11.2;;;8.7;;
12721;SDS011;6425;50.316;8.114;2023-08-30T07:33:00;11.2;;;8.7;;
12721;SDS011;6425;50.316;8.114;2023-08-30T07:36:00;11.1;;;10;;
12721;SDS011;6425;50.316;8.114;2023-08-30T07:39:00;11.1;;;10;;
12721;SDS011;6425;50.316;8.114;2023-08-30T07:42:00;11.6;;;10.4;;
12721;SDS011;6425;50.316;8.114;2023-08-30T07:45:00;11.7;;;10;;
12721;SDS011;6425;50.316;8.114;2023-08-30T07:48:00;11.7;;;10;;
12721;SDS011;6425;50.316;8.114;2023-08-30T07:51:00;10.3;;;9;;
12721;SDS011;6425;50.316;8.114;2023-08-30T07:54:00;10.3;;;9;;
12721;SDS011;6425;50.316;8.114;2023-08-30T07:57:00;12.8;;;9.6;;
12721;SDS011;6425;50.316;8.114;2023-08-30T08:00:00;12.4;;;10.9;;
12721;SDS011;6425;50.316;8.114;2023-08-30T08:03:00;12.4;;;10.9;;
12721;SDS011;6425;50.316;8.114;2023-08-30T08:06:00;12;;;10.6;;
12721;SDS011;6425;50.316;8.114;2023-08-30T08:09:00;12;;;10.6;;
12721;SDS011;6425;50.316;8.114;2023-08-30T08:12:00;11.5;;;10.4;;
12721;SDS011;6425;50.316;8.114;2023-08-30T08:15:00;10.3;;;9.3;;
12721;SDS011;6425;50.316;8.114;2023-08-30T08:18:00;10.3;;;9.3;;
12721;SDS011;6425;50.316;8.114;2023-08-30T08:21:00;9.9;;;9;;
12721;SDS011;6425;50.316;8.114;2023-08-30T08:24:00;9.9;;;9;;
12721;SDS011;6425;50.316;8.114;2023-08-30T08:27:00;11.3;;;9.2;;
12721;SDS011;6425;50.316;8.114;2023-08-30T08:30:00;10;;;9;;
12721;SDS011;6425;50.316;8.114;2023-08-30T08:33:00;10;;;9;;
12721;SDS011;6425;50.316;8.114;2023-08-30T08:36:00;9.6;;;8.7;;
12721;SDS011;6425;50.316;8.114;2023-08-30T08:39:00;9.6;;;8.7;;
12721;SDS011;6425;50.316;8.114;2023-08-30T08:42:00;9.7;;;8.8;;
12721;SDS011;6425;50.316;8.114;2023-08-30T08:45:00;8.7;;;7.8;;
12721;SDS011;6425;50.316;8.114;2023-08-30T08:48:00;8.7;;;7.8;;
12721;SDS011;6425;50.316;8.114;2023-08-30T08:51:00;8.3;;;7.5;;
12721;SDS011;6425;50.316;8.114;2023-08-30T08:54:01;7.5;;;6.8;;
12721;SDS011;6425;50.316;8.114;2023-08-30T08:57:00;7.5;;;6.8;;
12721;SDS011;6425;50.316;8.114;2023-08-30T09:00:00;7.5;;;6;;
12721;SDS011;6425;50.316;8.114;2023-08-30T09:03:00;7.5;;;6;;
12721;SDS011;6425;50.316;8.114;2023-08-30T09:06:00;6.5;;;5.6;;
12721;SDS011;6425;50.316;8.114;2023-08-30T09:09:00;5.6;;;5.1;;
12721;SDS011;6425;50.316;8.114;2023-08-30T09:12:00;5.6;;;5.1;;
12721;SDS011;6425;50.316;8.114;2023-08-30T09:15:00;5.3;;;4.9;;
12721;SDS011;6425;50.316;8.114;2023-08-30T09:18:00;5.3;;;4.9;;
12721;SDS011;6425;50.316;8.114;2023-08-30T09:21:07;3.9;;;3.6;;
12721;SDS011;6425;50.316;8.114;2023-08-30T09:24:00;5.1;;;3.7;;
12721;SDS011;6425;50.316;8.114;2023-08-30T09:27:00;5.1;;;3.7;;
12721;SDS011;6425;50.316;8.114;2023-08-30T09:30:00;2.9;;;2.6;;
12721;SDS011;6425;50.316;8.114;2023-08-30T09:33:00;2.9;;;2.6;;
12721;SDS011;6425;50.316;8.114;2023-08-30T09:36:00;3.6;;;3.3;;
12721;SDS011;6425;50.316;8.114;2023-08-30T09:39:02;5.1;;;3.2;;
12721;SDS011;6425;50.316;8.114;2023-08-30T09:42:00;5.1;;;3.2;;
12721;SDS011;6425;50.316;8.114;2023-08-30T09:45:00;3.5;;;2.9;;
12721;SDS011;6425;50.316;8.114;2023-08-30T09:48:01;3.5;;;2.9;;
12721;SDS011;6425;50.316;8.114;2023-08-30T09:51:00;3.9;;;2.8;;
12721;SDS011;6425;50.316;8.114;2023-08-30T09:54:00;3.8;;;2.5;;
12721;SDS011;6425;50.316;8.114;2023-08-30T09:57:00;3.8;;;2.5;;
12721;SDS011;6425;50.316;8.114;2023-08-30T10:00:00;3;;;2.2;;
12721;SDS011;6425;50.316;8.114;2023-08-30T10:03:00;3;;;2.2;;
12721;SDS011;6425;50.316;8.114;2023-08-30T10:06:00;4.6;;;2.4;;
12721;SDS011;6425;50.316;8.114;2023-08-30T10:09:00;2.9;;;2.6;;
12721;SDS011;6425;50.316;8.114;2023-08-30T10:12:00;2.9;;;2.6;;
12721;SDS011;6425;50.316;8.114;2023-08-30T10:15:00;7.6;;;2.8;;
12721;SDS011;6425;50.316;8.114;2023-08-30T10:18:00;7.6;;;2.8;;
12721;SDS011;6425;50.316;8.114;2023-08-30T10:21:00;4.1;;;2.6;;
12721;SDS011;6425;50.316;8.114;2023-08-30T10:24:00;2.7;;;2.4;;
12721;SDS011;6425;50.316;8.114;2023-08-30T10:27:00;2.7;;;2.4;;
12721;SDS011;6425;50.316;8.114;2023-08-30T10:30:00;3.8;;;2.4;;
12721;SDS011;6425;50.316;8.114;2023-08-30T10:33:00;3.8;;;2.4;;
12721;SDS011;6425;50.316;8.114;2023-08-30T10:36:04;3.7;;;2.5;;
12721;SDS011;6425;50.316;8.114;2023-08-30T10:39:00;9.5;;;2.7;;
12721;SDS011;6425;50.316;8.114;2023-08-30T10:42:00;9.5;;;2.7;;
12721;SDS011;6425;50.316;8.114;2023-08-30T10:45:01;3.6;;;2.1;;
12721;SDS011;6425;50.316;8.114;2023-08-30T10:48:00;3.6;;;2.1;;
12721;SDS011;6425;50.316;8.114;2023-08-30T10:51:00;6.7;;;2.4;;
12721;SDS011;6425;50.316;8.114;2023-08-30T10:54:00;9.5;;;2.8;;
12721;SDS011;6425;50.316;8.114;2023-08-30T10:57:00;9.5;;;2.8;;
12721;SDS011;6425;50.316;8.114;2023-08-30T11:00:03;6.9;;;3;;
12721;SDS011;6425;50.316;8.114;2023-08-30T11:03:00;6.9;;;3;;
12721;SDS011;6425;50.316;8.114;2023-08-30T11:06:00;5.7;;;3;;
12721;SDS011;6425;50.316;8.114;2023-08-30T11:09:00;3;;;2.6;;
12721;SDS011;6425;50.316;8.114;2023-08-30T11:12:04;3;;;2.6;;
12721;SDS011;6425;50.316;8.114;2023-08-30T11:15:00;3;;;2.2;;
12721;SDS011;6425;50.316;8.114;2023-08-30T11:18:03;3;;;2.2;;
12721;SDS011;6425;50.316;8.114;2023-08-30T11:21:00;3;;;2.2;;
12721;SDS011;6425;50.316;8.114;2023-08-30T11:24:00;3.1;;;2.4;;
12721;SDS011;6425;50.316;8.114;2023-08-30T11:27:00;3.1;;;2.4;;
12721;SDS011;6425;50.316;8.114;2023-08-30T11:30:00;3.5;;;2.6;;
12721;SDS011;6425;50.316;8.114;2023-08-30T11:33:00;3.5;;;2.6;;
12721;SDS011;6425;50.316;8.114;2023-08-30T11:36:00;8;;;2.6;;
12721;SDS011;6425;50.316;8.114;2023-08-30T11:39:00;7.2;;;3;;
12721;SDS011;6425;50.316;8.114;2023-08-30T11:42:00;7.2;;;3;;
12721;SDS011;6425;50.316;8.114;2023-08-30T11:45:00;5.5;;;2.2;;
12721;SDS011;6425;50.316;8.114;2023-08-30T11:48:00;5.5;;;2.2;;
12721;SDS011;6425;50.316;8.114;2023-08-30T11:51:00;7.1;;;2.5;;
12721;SDS011;6425;50.316;8.114;2023-08-30T11:54:00;3.7;;;2.1;;
12721;SDS011;6425;50.316;8.114;2023-08-30T11:57:00;3.7;;;2.1;;
12721;SDS011;6425;50.316;8.114;2023-08-30T12:00:06;2.3;;;2.1;;
12721;SDS011;6425;50.316;8.114;2023-08-30T12:03:00;2.3;;;2.1;;
12721;SDS011;6425;50.316;8.114;2023-08-30T12:06:00;3.4;;;2.1;;
12721;SDS011;6425;50.316;8.114;2023-08-30T12:09:00;2.2;;;1.8;;
12721;SDS011;6425;50.316;8.114;2023-08-30T12:12:09;2.2;;;1.8;;
12721;SDS011;6425;50.316;8.114;2023-08-30T12:15:00;2.3;;;2.1;;
12721;SDS011;6425;50.316;8.114;2023-08-30T12:18:05;2.3;;;2.1;;
12721;SDS011;6425;50.316;8.114;2023-08-30T12:21:00;3.1;;;2.2;;
12721;SDS011;6425;50.316;8.114;2023-08-30T12:24:00;2.9;;;2.1;;
12721;SDS011;6425;50.316;8.114;2023-08-30T12:27:00;2.9;;;2.1;;
12721;SDS011;6425;50.316;8.114;2023-08-30T12:30:00;3.7;;;2.1;;
12721;SDS011;6425;50.316;8.114;2023-08-30T12:33:00;3.7;;;2.1;;
12721;SDS011;6425;50.316;8.114;2023-08-30T12:36:00;3.9;;;2.4;;
12721;SDS011;6425;50.316;8.114;2023-08-30T12:39:00;3.8;;;2.4;;
12721;SDS011;6425;50.316;8.114;2023-08-30T12:42:00;3.8;;;2.4;;
12721;SDS011;6425;50.316;8.114;2023-08-30T12:45:00;4.1;;;2.9;;
12721;SDS011;6425;50.316;8.114;2023-08-30T12:48:00;4.1;;;2.9;;
12721;SDS011;6425;50.316;8.114;2023-08-30T12:51:00;3.6;;;2.5;;
12721;SDS011;6425;50.316;8.114;2023-08-30T12:54:00;3.6;;;2.9;;
12721;SDS011;6425;50.316;8.114;2023-08-30T12:57:00;3.6;;;2.9;;
12721;SDS011;6425;50.316;8.114;2023-08-30T13:00:00;4.5;;;2.6;;
12721;SDS011;6425;50.316;8.114;2023-08-30T13:03:00;4.5;;;2.6;;
12721;SDS011;6425;50.316;8.114;2023-08-30T13:06:00;4.7;;;3.4;;
12721;SDS011;6425;50.316;8.114;2023-08-30T13:09:00;4.3;;;3.3;;
12721;SDS011;6425;50.316;8.114;2023-08-30T13:12:00;4.3;;;3.3;;
12721;SDS011;6425;50.316;8.114;2023-08-30T13:15:00;4.7;;;3.1;;
12721;SDS011;6425;50.316;8.114;2023-08-30T13:18:00;4.7;;;3.1;;
12721;SDS011;6425;50.316;8.114;2023-08-30T13:21:00;5.5;;;3.3;;
12721;SDS011;6425;50.316;8.114;2023-08-30T13:24:00;4.9;;;3.2;;
12721;SDS011;6425;50.316;8.114;2023-08-30T13:27:00;4.9;;;3.2;;
12721;SDS011;6425;50.316;8.114;2023-08-30T13:30:00;4.2;;;2.9;;
12721;SDS011;6425;50.316;8.114;2023-08-30T13:33:00;4.2;;;2.9;;
12721;SDS011;6425;50.316;8.114;2023-08-30T13:36:00;4.2;;;2.6;;
12721;SDS011;6425;50.316;8.114;2023-08-30T13:39:00;3.3;;;2.9;;
12721;SDS011;6425;50.316;8.114;2023-08-30T13:42:00;3.3;;;2.9;;
12721;SDS011;6425;50.316;8.114;2023-08-30T13:45:00;3.2;;;2.9;;
12721;SDS011;6425;50.316;8.114;2023-08-30T13:48:00;3.2;;;2.9;;
12721;SDS011;6425;50.316;8.114;2023-08-30T13:51:00;3.7;;;3.2;;
12721;SDS011;6425;50.316;8.114;2023-08-30T13:54:00;4.1;;;3.3;;
12721;SDS011;6425;50.316;8.114;2023-08-30T13:57:00;4.1;;;3.3;;
12721;SDS011;6425;50.316;8.114;2023-08-30T14:00:00;4.2;;;3.3;;
12721;SDS011;6425;50.316;8.114;2023-08-30T14:03:00;4.2;;;3.3;;
12721;SDS011;6425;50.316;8.114;2023-08-30T14:06:00;4.6;;;3;;
12721;SDS011;6425;50.316;8.114;2023-08-30T14:09:00;5.4;;;3.5;;
12721;SDS011;6425;50.316;8.114;2023-08-30T14:12:00;5.4;;;3.5;;
12721;SDS011;6425;50.316;8.114;2023-08-30T14:15:00;4.3;;;3.2;;
12721;SDS011;6425;50.316;8.114;2023-08-30T14:18:00;4.3;;;3.2;;
12721;SDS011;6425;50.316;8.114;2023-08-30T14:21:00;4;;;2.8;;
12721;SDS011;6425;50.316;8.114;2023-08-30T14:24:00;3;;;2.6;;
12721;SDS011;6425;50.316;8.114;2023-08-30T14:27:00;3;;;2.6;;
12721;SDS011;6425;50.316;8.114;2023-08-30T14:30:00;4.3;;;2.4;;
12721;SDS011;6425;50.316;8.114;2023-08-30T14:33:00;4.3;;;2.4;;
12721;SDS011;6425;50.316;8.114;2023-08-30T14:36:00;4.4;;;2.4;;
12721;SDS011;6425;50.316;8.114;2023-08-30T14:39:00;3.8;;;2.3;;
12721;SDS011;6425;50.316;8.114;2023-08-30T14:42:00;3.8;;;2.3;;
12721;SDS011;6425;50.316;8.114;2023-08-30T14:45:00;4;;;2.7;;
12721;SDS011;6425;50.316;8.114;2023-08-30T14:48:00;2.7;;;2.4;;
12721;SDS011;6425;50.316;8.114;2023-08-30T14:51:00;2.7;;;2.4;;
12721;SDS011;6425;50.316;8.114;2023-08-30T14:54:00;4.3;;;2.5;;
12721;SDS011;6425;50.316;8.114;2023-08-30T14:57:00;4.3;;;2.5;;
12721;SDS011;6425;50.316;8.114;2023-08-30T15:00:00;6.3;;;2.8;;
12721;SDS011;6425;50.316;8.114;2023-08-30T15:03:00;3.7;;;2.7;;
12721;SDS011;6425;50.316;8.114;2023-08-30T15:06:00;3.7;;;2.7;;
12721;SDS011;6425;50.316;8.114;2023-08-30T15:09:00;2.7;;;2.3;;
12721;SDS011;6425;50.316;8.114;2023-08-30T15:12:00;2.7;;;2.3;;
12721;SDS011;6425;50.316;8.114;2023-08-30T15:15:00;3;;;2.2;;
12721;SDS011;6425;50.316;8.114;2023-08-30T15:18:00;3.5;;;2.3;;
12721;SDS011;6425;50.316;8.114;2023-08-30T15:21:00;3.5;;;2.3;;
12721;SDS011;6425;50.316;8.114;2023-08-30T15:24:00;3.5;;;2.2;;
12721;SDS011;6425;50.316;8.114;2023-08-30T15:27:00;3.5;;;2.2;;
12721;SDS011;6425;50.316;8.114;2023-08-30T15:30:00;7.3;;;2.4;;
12721;SDS011;6425;50.316;8.114;2023-08-30T15:33:00;5.1;;;2;;
12721;SDS011;6425;50.316;8.114;2023-08-30T15:36:00;5.1;;;2;;
12721;SDS011;6425;50.316;8.114;2023-08-30T15:39:00;2.8;;;2;;
12721;SDS011;6425;50.316;8.114;2023-08-30T15:42:00;2.8;;;2;;
12721;SDS011;6425;50.316;8.114;2023-08-30T15:45:00;4;;;2.5;;
12721;SDS011;6425;50.316;8.114;2023-08-30T15:48:00;3.9;;;3.4;;
12721;SDS011;6425;50.316;8.114;2023-08-30T15:51:00;3.9;;;3.4;;
12721;SDS011;6425;50.316;8.114;2023-08-30T15:54:00;4.9;;;4.5;;
12721;SDS011;6425;50.316;8.114;2023-08-30T15:57:00;4.9;;;4.5;;
12721;SDS011;6425;50.316;8.114;2023-08-30T16:00:00;6;;;4.9;;
12721;SDS011;6425;50.316;8.114;2023-08-30T16:03:00;5.2;;;4.7;;
12721;SDS011;6425;50.316;8.114;2023-08-30T16:06:00;5.2;;;4.7;;
12721;SDS011;6425;50.316;8.114;2023-08-30T16:09:00;7.1;;;4.6;;
12721;SDS011;6425;50.316;8.114;2023-08-30T16:12:00;7.1;;;4.6;;
12721;SDS011;6425;50.316;8.114;2023-08-30T16:15:00;4.5;;;3.9;;
12721;SDS011;6425;50.316;8.114;2023-08-30T16:18:00;4;;;3.7;;
12721;SDS011;6425;50.316;8.114;2023-08-30T16:21:00;4;;;3.7;;
12721;SDS011;6425;50.316;8.114;2023-08-30T16:24:00;5.3;;;4.8;;
12721;SDS011;6425;50.316;8.114;2023-08-30T16:27:00;5.3;;;4.8;;
12721;SDS011;6425;50.316;8.114;2023-08-30T16:30:00;5.8;;;5;;
12721;SDS011;6425;50.316;8.114;2023-08-30T16:33:00;2.9;;;2.7;;
12721;SDS011;6425;50.316;8.114;2023-08-30T16:36:00;2.9;;;2.7;;
12721;SDS011;6425;50.316;8.114;2023-08-30T16:39:00;3.6;;;3.3;;
12721;SDS011;6425;50.316;8.114;2023-08-30T16:42:00;3.6;;;3.3;;
12721;SDS011;6425;50.316;8.114;2023-08-30T16:45:00;2.8;;;2.6;;
12721;SDS011;6425;50.316;8.114;2023-08-30T16:48:00;2.7;;;2.5;;
12721;SDS011;6425;50.316;8.114;2023-08-30T16:51:00;2.7;;;2.5;;
12721;SDS011;6425;50.316;8.114;2023-08-30T16:54:00;3.8;;;3.5;;
12721;SDS011;6425;50.316;8.114;2023-08-30T16:57:00;3.8;;;3.5;;
12721;SDS011;6425;50.316;8.114;2023-08-30T17:00:00;3.8;;;3.4;;
12721;SDS011;6425;50.316;8.114;2023-08-30T17:03:00;4.2;;;3.8;;
12721;SDS011;6425;50.316;8.114;2023-08-30T17:06:00;4.2;;;3.8;;
12721;SDS011;6425;50.316;8.114;2023-08-30T17:09:02;4.3;;;3.9;;
12721;SDS011;6425;50.316;8.114;2023-08-30T17:12:00;4.3;;;3.9;;
12721;SDS011;6425;50.316;8.114;2023-08-30T17:15:00;5.1;;;3.9;;
12721;SDS011;6425;50.316;8.114;2023-08-30T17:18:00;4.5;;;4.1;;
12721;SDS011;6425;50.316;8.114;2023-08-30T17:21:00;4.5;;;4.1;;
12721;SDS011;6425;50.316;8.114;2023-08-30T17:24:00;4.5;;;3.6;;
12721;SDS011;6425;50.316;8.114;2023-08-30T17:27:00;4.5;;;3.6;;
12721;SDS011;6425;50.316;8.114;2023-08-30T17:30:00;2.4;;;2.3;;
12721;SDS011;6425;50.316;8.114;2023-08-30T17:33:00;1.4;;;1.3;;
12721;SDS011;6425;50.316;8.114;2023-08-30T17:36:00;1.4;;;1.3;;
12721;SDS011;6425;50.316;8.114;2023-08-30T17:39:00;1.3;;;1.3;;
12721;SDS011;6425;50.316;8.114;2023-08-30T17:42:00;1.3;;;1.3;;
12721;SDS011;6425;50.316;8.114;2023-08-30T17:45:00;2.4;;;2.2;;
12721;SDS011;6425;50.316;8.114;2023-08-30T17:48:00;2.4;;;2.2;;
12721;SDS011;6425;50.316;8.114;2023-08-30T17:51:00;2.4;;;2.2;;
12721;SDS011;6425;50.316;8.114;2023-08-30T17:54:00;2.4;;;2.2;;
12721;SDS011;6425;50.316;8.114;2023-08-30T17:57:00;2.4;;;2.2;;
12721;SDS011;6425;50.316;8.114;2023-08-30T18:00:00;4.6;;;3.2;;
12721;SDS011;6425;50.316;8.114;2023-08-30T18:03:00;3.5;;;3.1;;
12721;SDS011;6425;50.316;8.114;2023-08-30T18:06:00;3.5;;;3.1;;
12721;SDS011;6425;50.316;8.114;2023-08-30T18:09:00;5;;;3.7;;
12721;SDS011;6425;50.316;8.114;2023-08-30T18:12:00;5;;;3.7;;
12721;SDS011;6425;50.316;8.114;2023-08-30T18:15:00;3.4;;;3.1;;
12721;SDS011;6425;50.316;8.114;2023-08-30T18:18:00;5;;;3.8;;
12721;SDS011;6425;50.316;8.114;2023-08-30T18:21:00;5;;;3.8;;
12721;SDS011;6425;50.316;8.114;2023-08-30T18:24:16;4;;;3.6;;
12721;SDS011;6425;50.316;8.114;2023-08-30T18:27:00;4;;;3.6;;
12721;SDS011;6425;50.316;8.114;2023-08-30T18:30:00;5.3;;;4.1;;
12721;SDS011;6425;50.316;8.114;2023-08-30T18:33:00;6.1;;;4.5;;
12721;SDS011;6425;50.316;8.114;2023-08-30T18:36:00;6.1;;;4.5;;
12721;SDS011;6425;50.316;8.114;2023-08-30T18:39:00;6.7;;;5.3;;
12721;SDS011;6425;50.316;8.114;2023-08-30T18:42:00;6.7;;;5.3;;
12721;SDS011;6425;50.316;8.114;2023-08-30T18:45:00;6.2;;;5.6;;
12721;SDS011;6425;50.316;8.114;2023-08-30T18:48:00;6;;;5.2;;
12721;SDS011;6425;50.316;8.114;2023-08-30T18:51:00;6;;;5.2;;
12721;SDS011;6425;50.316;8.114;2023-08-30T18:54:00;6.8;;;6;;